Ameagle, West Virginia
Current Conditions -  °F | °C
As of 8:51 PM on Friday 19 Dec 2014 (Local Time) from KBKW Reporting Station
Overcast Overcast  
Wind Chill: -8°   Ceiling: 900
Heat Index: -4°   Visibility: 10mi
Dew Point: -7°   Wind: 6mph
Humidity: 81%   Direction: 10°N
Pressure: 30.19"   Gusts: NA
Location:  37.95°N, 81.42°W
Report Text: KBKW 200151Z AUTO 01005KT 10SM OVC009 M04/M07 A3019 RMK AO2 SLP261 T10391067
Loading
Personal Weather Stations






























Interactive Weather Map New forecast layout! Learn more

10-Day Weather Forecast

Advertisements
Track Severe Weather on mobile